Windsor, Connecticut
Current Conditions -  °F | °C
As of 2:12 PM on Sunday 21 Dec 2014 (Local Time) from KBDL Reporting Station
Light Snow Light Snow  
Wind Chill: 26°   Ceiling: 1900
Heat Index: 33°   Visibility: 8mi
Dew Point: 29°   Wind: 8mph
Humidity: 85%   Direction: 360°N
Pressure: 30.28"   Gusts: NA
Location:  41.85°N, 72.64°W
Report Text: KBDL 211912Z 36007KT 8SM -SN SCT009 BKN019 OVC035 01/M02 A3028 RMK AO2 P0000 T00061017 $
Loading
Personal Weather Stations






























Interactive Weather Map New forecast layout! Learn more

10-Day Weather Forecast

Advertisements
Track Severe Weather on mobile